sensor_id;sensor_type;location;lat;lon;timestamp;P1;durP1;ratioP1;P2;durP2;ratioP2
70169;SDS011;57543;45.442;9.212;2024-01-06T00:01:57;11.20;;;8.25;;
70169;SDS011;57543;45.442;9.212;2024-01-06T00:05:01;10.90;;;7.73;;
70169;SDS011;57543;45.442;9.212;2024-01-06T00:08:05;11.05;;;7.55;;
70169;SDS011;57543;45.442;9.212;2024-01-06T00:11:09;12.98;;;8.68;;
70169;SDS011;57543;45.442;9.212;2024-01-06T00:14:13;10.82;;;8.00;;
70169;SDS011;57543;45.442;9.212;2024-01-06T00:17:17;11.25;;;7.88;;
70169;SDS011;57543;45.442;9.212;2024-01-06T00:20:20;11.83;;;8.90;;
70169;SDS011;57543;45.442;9.212;2024-01-06T00:23:24;12.48;;;7.72;;
70169;SDS011;57543;45.442;9.212;2024-01-06T00:26:30;11.27;;;7.88;;
70169;SDS011;57543;45.442;9.212;2024-01-06T00:29:33;10.40;;;7.47;;
70169;SDS011;57543;45.442;9.212;2024-01-06T00:32:37;11.30;;;7.88;;
70169;SDS011;57543;45.442;9.212;2024-01-06T00:35:41;11.03;;;7.50;;
70169;SDS011;57543;45.442;9.212;2024-01-06T00:38:45;10.45;;;7.28;;
70169;SDS011;57543;45.442;9.212;2024-01-06T00:41:48;9.82;;;6.80;;
70169;SDS011;57543;45.442;9.212;2024-01-06T00:44:51;9.93;;;7.15;;
70169;SDS011;57543;45.442;9.212;2024-01-06T00:47:55;9.10;;;6.80;;
70169;SDS011;57543;45.442;9.212;2024-01-06T00:50:58;11.70;;;7.13;;
70169;SDS011;57543;45.442;9.212;2024-01-06T00:54:02;9.95;;;6.40;;
70169;SDS011;57543;45.442;9.212;2024-01-06T00:57:05;9.20;;;6.55;;
70169;SDS011;57543;45.442;9.212;2024-01-06T01:00:09;9.05;;;6.30;;
70169;SDS011;57543;45.442;9.212;2024-01-06T01:03:13;9.55;;;6.63;;
70169;SDS011;57543;45.442;9.212;2024-01-06T01:06:16;8.67;;;6.10;;
70169;SDS011;57543;45.442;9.212;2024-01-06T01:09:20;8.75;;;6.25;;
70169;SDS011;57543;45.442;9.212;2024-01-06T01:12:23;9.90;;;6.55;;
70169;SDS011;57543;45.442;9.212;2024-01-06T01:15:27;9.20;;;6.53;;
70169;SDS011;57543;45.442;9.212;2024-01-06T01:18:31;11.13;;;6.40;;
70169;SDS011;57543;45.442;9.212;2024-01-06T01:21:34;9.03;;;6.20;;
70169;SDS011;57543;45.442;9.212;2024-01-06T01:24:38;9.10;;;6.43;;
70169;SDS011;57543;45.442;9.212;2024-01-06T01:27:41;10.43;;;5.60;;
70169;SDS011;57543;45.442;9.212;2024-01-06T01:30:45;8.85;;;5.68;;
70169;SDS011;57543;45.442;9.212;2024-01-06T01:33:49;8.35;;;5.30;;
70169;SDS011;57543;45.442;9.212;2024-01-06T01:36:52;7.70;;;5.50;;
70169;SDS011;57543;45.442;9.212;2024-01-06T01:39:56;8.05;;;5.03;;
70169;SDS011;57543;45.442;9.212;2024-01-06T01:42:59;7.65;;;5.03;;
70169;SDS011;57543;45.442;9.212;2024-01-06T01:46:03;9.15;;;5.30;;
70169;SDS011;57543;45.442;9.212;2024-01-06T01:49:07;7.68;;;5.10;;
70169;SDS011;57543;45.442;9.212;2024-01-06T01:52:11;7.70;;;5.00;;
70169;SDS011;57543;45.442;9.212;2024-01-06T01:55:16;6.50;;;4.70;;
70169;SDS011;57543;45.442;9.212;2024-01-06T01:58:20;6.57;;;4.22;;
70169;SDS011;57543;45.442;9.212;2024-01-06T02:01:23;7.45;;;4.53;;
70169;SDS011;57543;45.442;9.212;2024-01-06T02:04:27;6.90;;;4.18;;
70169;SDS011;57543;45.442;9.212;2024-01-06T02:07:30;5.33;;;3.60;;
70169;SDS011;57543;45.442;9.212;2024-01-06T02:10:34;5.35;;;3.80;;
70169;SDS011;57543;45.442;9.212;2024-01-06T02:13:37;6.53;;;4.10;;
70169;SDS011;57543;45.442;9.212;2024-01-06T02:16:41;5.57;;;3.38;;
70169;SDS011;57543;45.442;9.212;2024-01-06T02:19:44;6.18;;;3.47;;
70169;SDS011;57543;45.442;9.212;2024-01-06T02:22:48;5.30;;;3.57;;
70169;SDS011;57543;45.442;9.212;2024-01-06T02:25:51;5.68;;;3.90;;
70169;SDS011;57543;45.442;9.212;2024-01-06T02:28:55;6.15;;;3.95;;
70169;SDS011;57543;45.442;9.212;2024-01-06T02:31:59;5.93;;;3.90;;
70169;SDS011;57543;45.442;9.212;2024-01-06T02:35:03;5.30;;;3.60;;
70169;SDS011;57543;45.442;9.212;2024-01-06T02:38:07;7.53;;;3.90;;
70169;SDS011;57543;45.442;9.212;2024-01-06T02:41:11;6.93;;;3.80;;
70169;SDS011;57543;45.442;9.212;2024-01-06T02:44:15;5.53;;;3.60;;
70169;SDS011;57543;45.442;9.212;2024-01-06T02:47:18;6.57;;;3.88;;
70169;SDS011;57543;45.442;9.212;2024-01-06T02:50:22;7.00;;;4.15;;
70169;SDS011;57543;45.442;9.212;2024-01-06T02:53:25;6.67;;;4.10;;
70169;SDS011;57543;45.442;9.212;2024-01-06T02:56:29;6.75;;;4.13;;
70169;SDS011;57543;45.442;9.212;2024-01-06T02:59:32;7.18;;;4.53;;
70169;SDS011;57543;45.442;9.212;2024-01-06T03:02:38;7.22;;;4.85;;
70169;SDS011;57543;45.442;9.212;2024-01-06T03:05:44;8.05;;;5.05;;
70169;SDS011;57543;45.442;9.212;2024-01-06T03:08:50;7.63;;;5.33;;
70169;SDS011;57543;45.442;9.212;2024-01-06T03:11:54;7.82;;;5.25;;
70169;SDS011;57543;45.442;9.212;2024-01-06T03:14:58;8.00;;;5.57;;
70169;SDS011;57543;45.442;9.212;2024-01-06T03:18:04;8.10;;;5.80;;
70169;SDS011;57543;45.442;9.212;2024-01-06T03:21:18;8.85;;;5.82;;
70169;SDS011;57543;45.442;9.212;2024-01-06T03:24:23;8.70;;;6.20;;
70169;SDS011;57543;45.442;9.212;2024-01-06T03:27:30;10.05;;;6.78;;
70169;SDS011;57543;45.442;9.212;2024-01-06T03:30:33;8.95;;;6.20;;
70169;SDS011;57543;45.442;9.212;2024-01-06T03:33:36;8.40;;;6.18;;
70169;SDS011;57543;45.442;9.212;2024-01-06T03:36:40;8.00;;;5.90;;
70169;SDS011;57543;45.442;9.212;2024-01-06T03:39:44;8.70;;;6.00;;
70169;SDS011;57543;45.442;9.212;2024-01-06T03:42:48;9.48;;;6.47;;
70169;SDS011;57543;45.442;9.212;2024-01-06T03:45:52;8.27;;;5.63;;
70169;SDS011;57543;45.442;9.212;2024-01-06T03:48:56;8.50;;;5.60;;
70169;SDS011;57543;45.442;9.212;2024-01-06T03:51:59;7.80;;;5.70;;
70169;SDS011;57543;45.442;9.212;2024-01-06T03:55:03;7.90;;;5.40;;
70169;SDS011;57543;45.442;9.212;2024-01-06T03:58:08;9.20;;;5.75;;
70169;SDS011;57543;45.442;9.212;2024-01-06T04:01:12;9.15;;;6.10;;
70169;SDS011;57543;45.442;9.212;2024-01-06T04:04:16;10.15;;;6.82;;
70169;SDS011;57543;45.442;9.212;2024-01-06T04:07:19;12.10;;;7.60;;
70169;SDS011;57543;45.442;9.212;2024-01-06T04:10:22;14.20;;;8.27;;
70169;SDS011;57543;45.442;9.212;2024-01-06T04:13:25;14.65;;;8.25;;
70169;SDS011;57543;45.442;9.212;2024-01-06T04:16:29;13.85;;;8.02;;
70169;SDS011;57543;45.442;9.212;2024-01-06T04:19:33;14.32;;;8.70;;
70169;SDS011;57543;45.442;9.212;2024-01-06T04:22:36;14.50;;;9.02;;
70169;SDS011;57543;45.442;9.212;2024-01-06T04:25:40;14.00;;;9.10;;
70169;SDS011;57543;45.442;9.212;2024-01-06T04:28:44;14.73;;;8.98;;
70169;SDS011;57543;45.442;9.212;2024-01-06T04:31:48;13.20;;;8.13;;
70169;SDS011;57543;45.442;9.212;2024-01-06T04:34:51;14.38;;;8.40;;
70169;SDS011;57543;45.442;9.212;2024-01-06T04:37:55;14.07;;;8.80;;
70169;SDS011;57543;45.442;9.212;2024-01-06T04:40:59;13.90;;;8.27;;
70169;SDS011;57543;45.442;9.212;2024-01-06T04:44:03;13.68;;;8.60;;
70169;SDS011;57543;45.442;9.212;2024-01-06T04:47:06;13.95;;;8.43;;
70169;SDS011;57543;45.442;9.212;2024-01-06T04:50:10;15.18;;;8.57;;
70169;SDS011;57543;45.442;9.212;2024-01-06T04:53:13;13.68;;;8.10;;
70169;SDS011;57543;45.442;9.212;2024-01-06T04:56:17;14.17;;;8.73;;
70169;SDS011;57543;45.442;9.212;2024-01-06T04:59:21;12.98;;;8.35;;
70169;SDS011;57543;45.442;9.212;2024-01-06T05:02:24;15.52;;;8.80;;
70169;SDS011;57543;45.442;9.212;2024-01-06T05:05:28;15.93;;;9.52;;
70169;SDS011;57543;45.442;9.212;2024-01-06T05:08:31;15.43;;;9.38;;
70169;SDS011;57543;45.442;9.212;2024-01-06T05:11:35;15.20;;;9.77;;
70169;SDS011;57543;45.442;9.212;2024-01-06T05:14:39;14.82;;;9.48;;
70169;SDS011;57543;45.442;9.212;2024-01-06T05:17:43;16.50;;;9.98;;
70169;SDS011;57543;45.442;9.212;2024-01-06T05:20:47;16.52;;;10.00;;
70169;SDS011;57543;45.442;9.212;2024-01-06T05:23:51;16.80;;;10.20;;
70169;SDS011;57543;45.442;9.212;2024-01-06T05:26:54;16.60;;;10.00;;
70169;SDS011;57543;45.442;9.212;2024-01-06T05:29:58;16.67;;;10.32;;
70169;SDS011;57543;45.442;9.212;2024-01-06T05:33:01;18.00;;;10.95;;
70169;SDS011;57543;45.442;9.212;2024-01-06T05:36:06;16.92;;;10.77;;
70169;SDS011;57543;45.442;9.212;2024-01-06T05:39:10;16.45;;;10.35;;
70169;SDS011;57543;45.442;9.212;2024-01-06T05:42:14;15.37;;;9.90;;
70169;SDS011;57543;45.442;9.212;2024-01-06T05:45:21;15.93;;;10.45;;
70169;SDS011;57543;45.442;9.212;2024-01-06T05:48:25;16.25;;;10.68;;
70169;SDS011;57543;45.442;9.212;2024-01-06T05:51:29;15.95;;;10.95;;
70169;SDS011;57543;45.442;9.212;2024-01-06T05:54:35;16.83;;;11.00;;
70169;SDS011;57543;45.442;9.212;2024-01-06T05:57:39;16.77;;;10.90;;
70169;SDS011;57543;45.442;9.212;2024-01-06T06:00:42;17.58;;;10.85;;
70169;SDS011;57543;45.442;9.212;2024-01-06T06:03:46;18.02;;;11.30;;
70169;SDS011;57543;45.442;9.212;2024-01-06T06:06:50;20.42;;;11.52;;
70169;SDS011;57543;45.442;9.212;2024-01-06T06:09:54;17.98;;;11.20;;
70169;SDS011;57543;45.442;9.212;2024-01-06T06:13:00;18.07;;;11.53;;
70169;SDS011;57543;45.442;9.212;2024-01-06T06:16:04;17.15;;;11.70;;
70169;SDS011;57543;45.442;9.212;2024-01-06T06:19:08;17.00;;;11.38;;
70169;SDS011;57543;45.442;9.212;2024-01-06T06:22:12;18.52;;;11.30;;
70169;SDS011;57543;45.442;9.212;2024-01-06T06:25:16;17.80;;;10.90;;
70169;SDS011;57543;45.442;9.212;2024-01-06T06:28:20;19.00;;;11.20;;
70169;SDS011;57543;45.442;9.212;2024-01-06T06:31:24;17.67;;;11.15;;
70169;SDS011;57543;45.442;9.212;2024-01-06T06:34:27;17.60;;;11.10;;
70169;SDS011;57543;45.442;9.212;2024-01-06T06:37:33;16.65;;;10.63;;
70169;SDS011;57543;45.442;9.212;2024-01-06T06:40:38;17.38;;;11.13;;
70169;SDS011;57543;45.442;9.212;2024-01-06T06:43:42;17.20;;;10.30;;
70169;SDS011;57543;45.442;9.212;2024-01-06T06:46:46;17.42;;;10.43;;
70169;SDS011;57543;45.442;9.212;2024-01-06T06:49:49;17.17;;;10.93;;
70169;SDS011;57543;45.442;9.212;2024-01-06T06:52:54;16.95;;;10.82;;
70169;SDS011;57543;45.442;9.212;2024-01-06T06:55:57;17.35;;;11.05;;
70169;SDS011;57543;45.442;9.212;2024-01-06T06:59:01;18.00;;;11.20;;
70169;SDS011;57543;45.442;9.212;2024-01-06T07:02:05;18.33;;;11.10;;
70169;SDS011;57543;45.442;9.212;2024-01-06T07:05:09;17.20;;;10.77;;
70169;SDS011;57543;45.442;9.212;2024-01-06T07:08:12;16.23;;;10.60;;
70169;SDS011;57543;45.442;9.212;2024-01-06T07:11:18;19.75;;;11.45;;
70169;SDS011;57543;45.442;9.212;2024-01-06T07:14:24;17.63;;;10.53;;
70169;SDS011;57543;45.442;9.212;2024-01-06T07:17:28;16.95;;;10.90;;
70169;SDS011;57543;45.442;9.212;2024-01-06T07:20:35;17.45;;;10.60;;
70169;SDS011;57543;45.442;9.212;2024-01-06T07:23:38;16.30;;;10.30;;
70169;SDS011;57543;45.442;9.212;2024-01-06T07:26:45;17.92;;;10.55;;
70169;SDS011;57543;45.442;9.212;2024-01-06T07:29:48;17.63;;;10.40;;
70169;SDS011;57543;45.442;9.212;2024-01-06T07:32:51;18.70;;;11.80;;
70169;SDS011;57543;45.442;9.212;2024-01-06T07:35:55;15.38;;;10.07;;
70169;SDS011;57543;45.442;9.212;2024-01-06T07:38:59;17.83;;;10.70;;
70169;SDS011;57543;45.442;9.212;2024-01-06T07:42:03;18.15;;;10.90;;
70169;SDS011;57543;45.442;9.212;2024-01-06T07:45:07;17.83;;;10.27;;
70169;SDS011;57543;45.442;9.212;2024-01-06T07:48:11;18.38;;;11.45;;
70169;SDS011;57543;45.442;9.212;2024-01-06T07:51:16;19.48;;;11.48;;
70169;SDS011;57543;45.442;9.212;2024-01-06T07:54:23;18.08;;;10.77;;
70169;SDS011;57543;45.442;9.212;2024-01-06T07:57:27;18.63;;;12.00;;
70169;SDS011;57543;45.442;9.212;2024-01-06T08:00:30;19.33;;;11.93;;
70169;SDS011;57543;45.442;9.212;2024-01-06T08:03:34;19.20;;;10.90;;
70169;SDS011;57543;45.442;9.212;2024-01-06T08:06:37;19.30;;;11.23;;
70169;SDS011;57543;45.442;9.212;2024-01-06T08:09:41;18.95;;;11.25;;
70169;SDS011;57543;45.442;9.212;2024-01-06T08:12:46;18.17;;;11.05;;
70169;SDS011;57543;45.442;9.212;2024-01-06T08:15:49;18.10;;;10.90;;
70169;SDS011;57543;45.442;9.212;2024-01-06T08:18:54;18.13;;;10.93;;
70169;SDS011;57543;45.442;9.212;2024-01-06T08:21:57;18.35;;;10.95;;
70169;SDS011;57543;45.442;9.212;2024-01-06T08:25:00;18.42;;;11.57;;
70169;SDS011;57543;45.442;9.212;2024-01-06T08:28:04;18.50;;;10.98;;
70169;SDS011;57543;45.442;9.212;2024-01-06T08:31:08;18.40;;;10.73;;
70169;SDS011;57543;45.442;9.212;2024-01-06T08:34:12;18.48;;;10.88;;
70169;SDS011;57543;45.442;9.212;2024-01-06T08:37:15;17.65;;;11.40;;
70169;SDS011;57543;45.442;9.212;2024-01-06T08:40:19;16.98;;;10.52;;
70169;SDS011;57543;45.442;9.212;2024-01-06T08:43:22;18.70;;;11.40;;
70169;SDS011;57543;45.442;9.212;2024-01-06T08:46:26;18.70;;;11.47;;
70169;SDS011;57543;45.442;9.212;2024-01-06T08:49:30;19.85;;;11.55;;
70169;SDS011;57543;45.442;9.212;2024-01-06T08:52:35;17.58;;;11.32;;
70169;SDS011;57543;45.442;9.212;2024-01-06T08:55:42;18.80;;;11.45;;
70169;SDS011;57543;45.442;9.212;2024-01-06T08:58:45;21.73;;;12.95;;
70169;SDS011;57543;45.442;9.212;2024-01-06T09:01:51;24.00;;;13.00;;
70169;SDS011;57543;45.442;9.212;2024-01-06T09:04:56;22.95;;;12.20;;
70169;SDS011;57543;45.442;9.212;2024-01-06T09:07:59;22.63;;;12.30;;
70169;SDS011;57543;45.442;9.212;2024-01-06T09:11:03;20.15;;;12.18;;
70169;SDS011;57543;45.442;9.212;2024-01-06T09:14:07;22.23;;;12.02;;
70169;SDS011;57543;45.442;9.212;2024-01-06T09:17:10;22.43;;;12.30;;
70169;SDS011;57543;45.442;9.212;2024-01-06T09:20:22;23.13;;;12.63;;
70169;SDS011;57543;45.442;9.212;2024-01-06T09:23:26;22.25;;;12.40;;
70169;SDS011;57543;45.442;9.212;2024-01-06T09:26:33;20.10;;;12.32;;
70169;SDS011;57543;45.442;9.212;2024-01-06T09:29:37;21.20;;;12.45;;
70169;SDS011;57543;45.442;9.212;2024-01-06T09:32:40;20.53;;;11.73;;
70169;SDS011;57543;45.442;9.212;2024-01-06T09:35:44;18.92;;;12.07;;
70169;SDS011;57543;45.442;9.212;2024-01-06T09:38:48;21.63;;;12.73;;
70169;SDS011;57543;45.442;9.212;2024-01-06T09:41:52;19.88;;;11.75;;
70169;SDS011;57543;45.442;9.212;2024-01-06T09:44:58;19.40;;;12.07;;
70169;SDS011;57543;45.442;9.212;2024-01-06T09:48:04;19.83;;;12.13;;
70169;SDS011;57543;45.442;9.212;2024-01-06T09:51:20;21.77;;;12.27;;
70169;SDS011;57543;45.442;9.212;2024-01-06T09:54:24;20.38;;;11.70;;
70169;SDS011;57543;45.442;9.212;2024-01-06T09:57:28;18.58;;;11.52;;
70169;SDS011;57543;45.442;9.212;2024-01-06T10:00:32;19.83;;;11.90;;
70169;SDS011;57543;45.442;9.212;2024-01-06T10:03:37;19.03;;;11.47;;
70169;SDS011;57543;45.442;9.212;2024-01-06T10:06:41;19.85;;;12.05;;
70169;SDS011;57543;45.442;9.212;2024-01-06T10:09:45;20.13;;;11.45;;
70169;SDS011;57543;45.442;9.212;2024-01-06T10:12:48;18.38;;;11.75;;
70169;SDS011;57543;45.442;9.212;2024-01-06T10:15:57;20.75;;;12.13;;
70169;SDS011;57543;45.442;9.212;2024-01-06T10:19:01;18.67;;;11.10;;
70169;SDS011;57543;45.442;9.212;2024-01-06T10:22:05;21.75;;;12.63;;
70169;SDS011;57543;45.442;9.212;2024-01-06T10:25:09;19.75;;;11.38;;
70169;SDS011;57543;45.442;9.212;2024-01-06T10:28:14;20.23;;;11.88;;
70169;SDS011;57543;45.442;9.212;2024-01-06T10:31:20;21.13;;;13.02;;
70169;SDS011;57543;45.442;9.212;2024-01-06T10:34:27;20.73;;;12.13;;
70169;SDS011;57543;45.442;9.212;2024-01-06T10:37:32;19.77;;;11.23;;
70169;SDS011;57543;45.442;9.212;2024-01-06T10:40:37;18.92;;;11.63;;
70169;SDS011;57543;45.442;9.212;2024-01-06T10:43:40;20.50;;;12.32;;
70169;SDS011;57543;45.442;9.212;2024-01-06T10:46:46;23.88;;;12.82;;
70169;SDS011;57543;45.442;9.212;2024-01-06T10:49:53;22.47;;;12.20;;
70169;SDS011;57543;45.442;9.212;2024-01-06T10:52:57;21.55;;;12.27;;
70169;SDS011;57543;45.442;9.212;2024-01-06T10:56:01;22.77;;;12.60;;
70169;SDS011;57543;45.442;9.212;2024-01-06T10:59:06;22.83;;;13.35;;
70169;SDS011;57543;45.442;9.212;2024-01-06T11:02:11;21.50;;;12.43;;
70169;SDS011;57543;45.442;9.212;2024-01-06T11:05:15;22.30;;;12.70;;
70169;SDS011;57543;45.442;9.212;2024-01-06T11:08:21;21.35;;;12.27;;
70169;SDS011;57543;45.442;9.212;2024-01-06T11:11:26;22.70;;;12.60;;
70169;SDS011;57543;45.442;9.212;2024-01-06T11:14:36;25.35;;;13.93;;
70169;SDS011;57543;45.442;9.212;2024-01-06T11:17:51;25.27;;;14.05;;
70169;SDS011;57543;45.442;9.212;2024-01-06T11:24:28;21.90;;;13.00;;
70169;SDS011;57543;45.442;9.212;2024-01-06T11:27:40;26.77;;;13.18;;
70169;SDS011;57543;45.442;9.212;2024-01-06T11:30:45;25.60;;;13.48;;
70169;SDS011;57543;45.442;9.212;2024-01-06T11:33:53;26.10;;;14.25;;
70169;SDS011;57543;45.442;9.212;2024-01-06T11:36:57;27.33;;;14.30;;
70169;SDS011;57543;45.442;9.212;2024-01-06T11:40:01;25.23;;;13.80;;
70169;SDS011;57543;45.442;9.212;2024-01-06T11:43:09;25.58;;;13.85;;
70169;SDS011;57543;45.442;9.212;2024-01-06T11:46:18;24.40;;;13.90;;
70169;SDS011;57543;45.442;9.212;2024-01-06T11:49:22;26.42;;;13.90;;
70169;SDS011;57543;45.442;9.212;2024-01-06T11:52:33;25.93;;;14.13;;
70169;SDS011;57543;45.442;9.212;2024-01-06T11:55:40;24.52;;;13.10;;
70169;SDS011;57543;45.442;9.212;2024-01-06T11:58:46;27.00;;;14.43;;
70169;SDS011;57543;45.442;9.212;2024-01-06T12:01:49;27.55;;;14.30;;
70169;SDS011;57543;45.442;9.212;2024-01-06T12:04:54;30.55;;;15.50;;
70169;SDS011;57543;45.442;9.212;2024-01-06T12:07:59;28.33;;;14.73;;
70169;SDS011;57543;45.442;9.212;2024-01-06T12:11:04;25.58;;;13.73;;
70169;SDS011;57543;45.442;9.212;2024-01-06T12:14:07;24.50;;;12.93;;
70169;SDS011;57543;45.442;9.212;2024-01-06T12:17:12;23.13;;;12.80;;
70169;SDS011;57543;45.442;9.212;2024-01-06T12:20:16;26.55;;;13.63;;
70169;SDS011;57543;45.442;9.212;2024-01-06T12:23:25;26.97;;;14.87;;
70169;SDS011;57543;45.442;9.212;2024-01-06T12:26:31;25.55;;;13.77;;
70169;SDS011;57543;45.442;9.212;2024-01-06T12:29:36;25.05;;;14.20;;
70169;SDS011;57543;45.442;9.212;2024-01-06T12:32:42;28.08;;;14.88;;
70169;SDS011;57543;45.442;9.212;2024-01-06T12:35:47;26.92;;;13.50;;
70169;SDS011;57543;45.442;9.212;2024-01-06T12:38:51;27.73;;;14.00;;
70169;SDS011;57543;45.442;9.212;2024-01-06T12:41:55;27.83;;;13.93;;
70169;SDS011;57543;45.442;9.212;2024-01-06T12:44:59;25.77;;;13.18;;
70169;SDS011;57543;45.442;9.212;2024-01-06T12:48:03;26.05;;;13.85;;
70169;SDS011;57543;45.442;9.212;2024-01-06T12:51:06;28.73;;;14.13;;
70169;SDS011;57543;45.442;9.212;2024-01-06T12:54:10;28.73;;;14.97;;
70169;SDS011;57543;45.442;9.212;2024-01-06T12:57:13;27.50;;;14.85;;
70169;SDS011;57543;45.442;9.212;2024-01-06T13:00:17;26.92;;;14.90;;
70169;SDS011;57543;45.442;9.212;2024-01-06T13:03:21;23.95;;;13.70;;
70169;SDS011;57543;45.442;9.212;2024-01-06T13:06:24;25.80;;;14.20;;
70169;SDS011;57543;45.442;9.212;2024-01-06T13:09:29;24.73;;;13.77;;
70169;SDS011;57543;45.442;9.212;2024-01-06T13:12:33;26.80;;;14.73;;
70169;SDS011;57543;45.442;9.212;2024-01-06T13:15:36;28.55;;;15.25;;
70169;SDS011;57543;45.442;9.212;2024-01-06T13:18:40;28.58;;;15.32;;
70169;SDS011;57543;45.442;9.212;2024-01-06T13:21:44;27.23;;;15.00;;
70169;SDS011;57543;45.442;9.212;2024-01-06T13:24:47;27.10;;;14.73;;
70169;SDS011;57543;45.442;9.212;2024-01-06T13:27:51;27.17;;;15.23;;
70169;SDS011;57543;45.442;9.212;2024-01-06T13:30:54;26.67;;;14.90;;
70169;SDS011;57543;45.442;9.212;2024-01-06T13:33:58;26.63;;;14.63;;
70169;SDS011;57543;45.442;9.212;2024-01-06T13:37:02;26.70;;;14.27;;
70169;SDS011;57543;45.442;9.212;2024-01-06T13:40:06;26.23;;;14.50;;
70169;SDS011;57543;45.442;9.212;2024-01-06T13:43:11;25.48;;;14.70;;
70169;SDS011;57543;45.442;9.212;2024-01-06T13:46:19;25.85;;;14.57;;
70169;SDS011;57543;45.442;9.212;2024-01-06T13:49:23;24.42;;;14.07;;
70169;SDS011;57543;45.442;9.212;2024-01-06T13:52:30;24.75;;;14.70;;
70169;SDS011;57543;45.442;9.212;2024-01-06T13:55:36;22.83;;;13.93;;
70169;SDS011;57543;45.442;9.212;2024-01-06T13:58:42;23.30;;;13.35;;
70169;SDS011;57543;45.442;9.212;2024-01-06T14:01:46;24.35;;;13.13;;
70169;SDS011;57543;45.442;9.212;2024-01-06T14:04:50;21.83;;;12.68;;
70169;SDS011;57543;45.442;9.212;2024-01-06T14:07:54;21.58;;;12.75;;
70169;SDS011;57543;45.442;9.212;2024-01-06T14:10:59;21.97;;;12.90;;
70169;SDS011;57543;45.442;9.212;2024-01-06T14:14:02;20.58;;;11.98;;
70169;SDS011;57543;45.442;9.212;2024-01-06T14:17:06;19.48;;;11.63;;
70169;SDS011;57543;45.442;9.212;2024-01-06T14:20:10;21.13;;;12.57;;
70169;SDS011;57543;45.442;9.212;2024-01-06T14:23:16;20.33;;;12.45;;
70169;SDS011;57543;45.442;9.212;2024-01-06T14:26:20;21.03;;;12.80;;
70169;SDS011;57543;45.442;9.212;2024-01-06T14:29:24;20.33;;;12.88;;
70169;SDS011;57543;45.442;9.212;2024-01-06T14:32:30;20.80;;;12.60;;
70169;SDS011;57543;45.442;9.212;2024-01-06T14:35:34;20.48;;;12.32;;
70169;SDS011;57543;45.442;9.212;2024-01-06T14:38:37;20.80;;;13.05;;
70169;SDS011;57543;45.442;9.212;2024-01-06T14:41:44;23.13;;;12.13;;
70169;SDS011;57543;45.442;9.212;2024-01-06T14:44:47;19.92;;;11.85;;
70169;SDS011;57543;45.442;9.212;2024-01-06T14:47:51;20.70;;;12.40;;
70169;SDS011;57543;45.442;9.212;2024-01-06T14:50:57;21.48;;;12.98;;
70169;SDS011;57543;45.442;9.212;2024-01-06T14:54:01;21.90;;;12.82;;
70169;SDS011;57543;45.442;9.212;2024-01-06T14:57:04;20.97;;;12.43;;
70169;SDS011;57543;45.442;9.212;2024-01-06T15:00:08;21.98;;;13.02;;
70169;SDS011;57543;45.442;9.212;2024-01-06T15:03:15;23.88;;;14.18;;
70169;SDS011;57543;45.442;9.212;2024-01-06T15:06:20;24.33;;;14.43;;
70169;SDS011;57543;45.442;9.212;2024-01-06T15:09:24;22.38;;;13.45;;
70169;SDS011;57543;45.442;9.212;2024-01-06T15:12:29;25.07;;;14.40;;
70169;SDS011;57543;45.442;9.212;2024-01-06T15:15:33;24.20;;;14.43;;
70169;SDS011;57543;45.442;9.212;2024-01-06T15:18:36;25.02;;;14.38;;
70169;SDS011;57543;45.442;9.212;2024-01-06T15:21:40;25.17;;;14.32;;
70169;SDS011;57543;45.442;9.212;2024-01-06T15:24:46;25.88;;;14.35;;
70169;SDS011;57543;45.442;9.212;2024-01-06T15:27:50;24.57;;;13.73;;
70169;SDS011;57543;45.442;9.212;2024-01-06T15:30:53;26.02;;;14.25;;
70169;SDS011;57543;45.442;9.212;2024-01-06T15:33:57;27.63;;;15.10;;
70169;SDS011;57543;45.442;9.212;2024-01-06T15:37:01;26.60;;;14.73;;
70169;SDS011;57543;45.442;9.212;2024-01-06T15:40:05;27.30;;;15.20;;
70169;SDS011;57543;45.442;9.212;2024-01-06T15:43:10;25.93;;;14.90;;
70169;SDS011;57543;45.442;9.212;2024-01-06T15:46:14;28.13;;;15.52;;
70169;SDS011;57543;45.442;9.212;2024-01-06T15:49:19;30.23;;;16.40;;
70169;SDS011;57543;45.442;9.212;2024-01-06T15:52:23;29.92;;;16.55;;
70169;SDS011;57543;45.442;9.212;2024-01-06T15:55:27;30.15;;;16.65;;
70169;SDS011;57543;45.442;9.212;2024-01-06T15:58:31;30.10;;;16.03;;
70169;SDS011;57543;45.442;9.212;2024-01-06T16:01:35;29.17;;;15.90;;
70169;SDS011;57543;45.442;9.212;2024-01-06T16:04:39;27.27;;;15.88;;
70169;SDS011;57543;45.442;9.212;2024-01-06T16:07:43;28.77;;;16.15;;
70169;SDS011;57543;45.442;9.212;2024-01-06T16:10:49;26.77;;;15.23;;
70169;SDS011;57543;45.442;9.212;2024-01-06T16:13:53;27.20;;;14.67;;
70169;SDS011;57543;45.442;9.212;2024-01-06T16:16:56;27.38;;;15.23;;
70169;SDS011;57543;45.442;9.212;2024-01-06T16:20:03;28.15;;;14.82;;
70169;SDS011;57543;45.442;9.212;2024-01-06T16:23:07;28.70;;;16.02;;
70169;SDS011;57543;45.442;9.212;2024-01-06T16:26:16;26.70;;;15.18;;
70169;SDS011;57543;45.442;9.212;2024-01-06T16:29:20;27.67;;;15.43;;
70169;SDS011;57543;45.442;9.212;2024-01-06T16:32:24;25.73;;;15.60;;
70169;SDS011;57543;45.442;9.212;2024-01-06T16:35:27;27.17;;;15.25;;
70169;SDS011;57543;45.442;9.212;2024-01-06T16:38:30;23.42;;;14.02;;
70169;SDS011;57543;45.442;9.212;2024-01-06T16:41:38;27.25;;;15.18;;
70169;SDS011;57543;45.442;9.212;2024-01-06T16:44:41;27.47;;;14.67;;
70169;SDS011;57543;45.442;9.212;2024-01-06T16:47:45;26.30;;;15.85;;
70169;SDS011;57543;45.442;9.212;2024-01-06T16:50:49;27.50;;;15.43;;
70169;SDS011;57543;45.442;9.212;2024-01-06T16:53:53;27.67;;;15.23;;
70169;SDS011;57543;45.442;9.212;2024-01-06T16:56:57;26.17;;;15.43;;
70169;SDS011;57543;45.442;9.212;2024-01-06T17:00:03;24.60;;;14.67;;
70169;SDS011;57543;45.442;9.212;2024-01-06T17:03:13;24.70;;;14.95;;
70169;SDS011;57543;45.442;9.212;2024-01-06T17:06:17;25.77;;;14.43;;
70169;SDS011;57543;45.442;9.212;2024-01-06T17:09:24;26.30;;;15.02;;
70169;SDS011;57543;45.442;9.212;2024-01-06T17:12:33;24.45;;;13.85;;
70169;SDS011;57543;45.442;9.212;2024-01-06T17:15:36;24.10;;;14.30;;
70169;SDS011;57543;45.442;9.212;2024-01-06T17:18:40;23.70;;;14.63;;
70169;SDS011;57543;45.442;9.212;2024-01-06T17:21:44;25.83;;;14.82;;
70169;SDS011;57543;45.442;9.212;2024-01-06T17:24:48;23.52;;;14.38;;
70169;SDS011;57543;45.442;9.212;2024-01-06T17:27:53;25.05;;;14.10;;
70169;SDS011;57543;45.442;9.212;2024-01-06T17:30:57;24.20;;;14.93;;
70169;SDS011;57543;45.442;9.212;2024-01-06T17:34:03;26.45;;;15.65;;
70169;SDS011;57543;45.442;9.212;2024-01-06T17:37:06;24.63;;;14.27;;
70169;SDS011;57543;45.442;9.212;2024-01-06T17:40:10;23.83;;;13.82;;
70169;SDS011;57543;45.442;9.212;2024-01-06T17:43:14;22.20;;;13.32;;
70169;SDS011;57543;45.442;9.212;2024-01-06T17:46:24;24.97;;;15.07;;
70169;SDS011;57543;45.442;9.212;2024-01-06T17:49:32;25.15;;;14.30;;
70169;SDS011;57543;45.442;9.212;2024-01-06T17:52:35;23.75;;;13.55;;
70169;SDS011;57543;45.442;9.212;2024-01-06T17:56:02;22.08;;;13.23;;
70169;SDS011;57543;45.442;9.212;2024-01-06T17:59:06;25.60;;;14.68;;
70169;SDS011;57543;45.442;9.212;2024-01-06T18:02:10;24.20;;;14.33;;
70169;SDS011;57543;45.442;9.212;2024-01-06T18:05:14;25.20;;;14.25;;
70169;SDS011;57543;45.442;9.212;2024-01-06T18:08:18;24.83;;;14.23;;
70169;SDS011;57543;45.442;9.212;2024-01-06T18:11:22;25.58;;;15.43;;